createdAt,value
2017-04-13T00:00:42.004Z,0
2017-04-13T00:01:42.020Z,0
2017-04-13T00:02:42.296Z,0
2017-04-13T00:03:41.767Z,0
2017-04-13T00:04:41.806Z,0
2017-04-13T00:05:41.521Z,0
2017-04-13T00:06:41.856Z,0
2017-04-13T00:07:42.133Z,0
2017-04-13T00:08:41.588Z,0
2017-04-13T00:09:41.646Z,0
2017-04-13T00:10:42.275Z,0
2017-04-13T00:11:41.677Z,0
2017-04-13T00:12:42.265Z,0
2017-04-13T00:13:42.355Z,0
2017-04-13T00:14:42.075Z,0
2017-04-13T00:15:42.107Z,0
2017-04-13T00:16:42.127Z,0
2017-04-13T00:17:42.764Z,0
2017-04-13T00:18:42.186Z,0
2017-04-13T00:19:42.523Z,0
2017-04-13T00:20:42.551Z,0
2017-04-13T00:21:42.265Z,0
2017-04-13T00:22:42.847Z,0
2017-04-13T00:23:42.318Z,0
2017-04-13T00:24:42.350Z,0
2017-04-13T00:25:42.691Z,0
2017-04-13T00:26:42.711Z,0
2017-04-13T00:27:43.000Z,0
2017-04-13T00:28:42.782Z,0
2017-04-13T00:29:42.798Z,0
2017-04-13T00:30:42.826Z,0
2017-04-13T00:31:42.231Z,0
2017-04-13T00:32:43.133Z,0
2017-04-13T00:33:42.601Z,0
2017-04-13T00:34:42.950Z,0
2017-04-13T00:36:41.368Z,0
2017-04-13T00:36:50.927Z,0
2017-04-13T00:37:51.519Z,0
2017-04-13T00:38:51.278Z,0
2017-04-13T00:39:51.306Z,0
2017-04-13T00:40:50.721Z,0
2017-04-13T00:41:51.367Z,0
2017-04-13T00:42:51.343Z,0
2017-04-13T00:43:51.424Z,0
2017-04-13T00:44:51.461Z,0
2017-04-13T00:45:50.862Z,0
2017-04-13T00:46:50.890Z,0
2017-04-13T00:47:50.866Z,0
2017-04-13T00:48:51.554Z,0
2017-04-13T00:49:51.287Z,0
2017-04-13T00:50:51.018Z,0
2017-04-13T00:51:51.419Z,0
2017-04-13T00:52:52.008Z,0
2017-04-13T00:53:51.165Z,0
2017-04-13T00:54:51.176Z,0
2017-04-13T00:55:51.526Z,0
2017-04-13T00:56:51.559Z,0
2017-04-13T00:57:51.847Z,0
2017-04-13T00:58:51.607Z,0
2017-04-13T00:59:51.640Z,0
2017-04-13T01:00:51.972Z,0
2017-04-13T01:01:52.008Z,0
2017-04-13T01:02:52.278Z,0
2017-04-13T01:03:51.439Z,0
2017-04-13T01:04:52.095Z,0
2017-04-13T01:05:51.793Z,0
2017-04-13T01:06:51.824Z,0
2017-04-13T01:07:52.114Z,0
2017-04-13T01:08:52.199Z,0
2017-04-13T01:09:51.911Z,0
2017-04-13T01:10:51.632Z,0
2017-04-13T01:11:52.277Z,0
2017-04-13T01:12:52.246Z,0
2017-04-13T01:13:52.342Z,0
2017-04-13T01:14:52.046Z,0
2017-04-13T01:15:52.087Z,0
2017-04-13T01:16:52.417Z,0
2017-04-13T01:17:52.390Z,0
2017-04-13T01:18:52.478Z,0
2017-04-13T01:19:52.496Z,0
2017-04-13T01:20:52.528Z,0
2017-04-13T01:21:52.549Z,0
2017-04-13T01:22:52.521Z,0
2017-04-13T01:23:52.615Z,0
2017-04-13T01:24:52.332Z,0
2017-04-13T01:25:52.671Z,0
2017-04-13T01:26:52.384Z,0
2017-04-13T01:27:52.661Z,0
2017-04-13T01:28:52.440Z,0
2017-04-13T01:29:52.774Z,0
2017-04-13T01:30:52.808Z,0
2017-04-13T01:31:52.512Z,0
2017-04-13T01:32:53.116Z,0
2017-04-13T01:33:52.890Z,0
2017-04-13T01:34:52.916Z,0
2017-04-13T01:35:52.628Z,0
2017-04-13T01:36:52.646Z,0
2017-04-13T01:37:53.290Z,0
2017-04-13T01:38:52.717Z,0
2017-04-13T01:39:52.738Z,0
2017-04-13T01:40:52.766Z,0
2017-04-13T01:41:52.790Z,0
2017-04-13T01:42:52.757Z,0
2017-04-13T01:43:52.533Z,0
2017-04-13T01:44:52.879Z,0
2017-04-13T01:45:53.222Z,0
2017-04-13T01:46:53.248Z,0
2017-04-13T01:47:52.901Z,0
2017-04-13T01:48:52.677Z,0
2017-04-13T01:49:53.322Z,0
2017-04-13T01:50:53.038Z,0
2017-04-13T01:51:53.379Z,0
2017-04-13T01:52:53.662Z,0
2017-04-13T01:53:53.437Z,0
2017-04-13T01:54:53.470Z,0
2017-04-13T01:55:53.179Z,0
2017-04-13T01:56:53.520Z,0
2017-04-13T01:57:53.800Z,0
2017-04-13T01:58:53.265Z,0
2017-04-13T01:59:53.607Z,0
2017-04-13T02:00:53.314Z,0
2017-04-13T02:01:53.666Z,0
2017-04-13T02:02:53.935Z,0
2017-04-13T02:03:53.708Z,0
2017-04-13T02:04:53.746Z,0
2017-04-13T02:05:53.765Z,0
2017-04-13T02:06:53.802Z,0
2017-04-13T02:07:53.759Z,0
2017-04-13T02:08:53.527Z,0
2017-04-13T02:09:53.877Z,0
2017-04-13T02:10:53.277Z,0
2017-04-13T02:11:53.624Z,0
2017-04-13T02:12:54.220Z,0
2017-04-13T02:13:53.985Z,0
2017-04-13T02:14:54.034Z,0
2017-04-13T02:15:53.733Z,0
2017-04-13T02:16:53.758Z,0
2017-04-13T02:17:54.039Z,0
2017-04-13T02:18:54.119Z,0
2017-04-13T02:19:53.842Z,0
2017-04-13T02:20:53.865Z,0
2017-04-13T02:21:53.583Z,0
2017-04-13T02:22:54.478Z,0
2017-04-13T02:23:53.943Z,0
2017-04-13T02:24:54.284Z,0
2017-04-13T02:25:54.313Z,0
2017-04-13T02:26:54.345Z,0
2017-04-13T02:27:54.302Z,0
2017-04-13T02:28:54.400Z,0
2017-04-13T02:29:54.120Z,0
2017-04-13T02:30:54.448Z,0
2017-04-13T02:31:54.488Z,0
2017-04-13T02:32:54.750Z,0
2017-04-13T02:33:54.211Z,0
2017-04-13T02:34:54.559Z,0
2017-04-13T02:35:54.273Z,0
2017-04-13T02:36:54.609Z,0
2017-04-13T02:37:54.270Z,0
2017-04-13T02:38:54.667Z,0
2017-04-13T02:39:54.383Z,0
2017-04-13T02:40:54.725Z,0
2017-04-13T02:41:54.433Z,0
2017-04-13T02:42:54.401Z,0
2017-04-13T02:43:54.807Z,0
2017-04-13T02:44:54.876Z,0
2017-04-13T02:45:54.544Z,0
2017-04-13T02:46:54.880Z,0
2017-04-13T02:47:54.845Z,0
2017-04-13T02:48:54.943Z,0
2017-04-13T02:49:54.971Z,0
2017-04-13T02:50:54.996Z,0
2017-04-13T02:51:55.022Z,0
2017-04-13T02:52:55.297Z,0
2017-04-13T02:53:55.079Z,0
2017-04-13T02:54:54.491Z,0
2017-04-13T02:55:55.132Z,0
2017-04-13T02:56:54.840Z,0
2017-04-13T02:57:55.125Z,0
2017-04-13T02:58:54.589Z,0
2017-04-13T02:59:55.247Z,0
2017-04-13T03:00:55.267Z,0
2017-04-13T03:01:55.292Z,0
2017-04-13T03:02:55.263Z,0
2017-04-13T03:03:54.414Z,0
2017-04-13T03:04:55.068Z,0
2017-04-13T03:05:55.083Z,0
2017-04-13T03:06:55.427Z,0
2017-04-13T03:07:55.400Z,0
2017-04-13T03:08:55.481Z,0
2017-04-13T03:09:55.201Z,0
2017-04-13T03:10:55.539Z,0
2017-04-13T03:11:55.564Z,0
2017-04-13T03:12:55.855Z,0
2017-04-13T03:13:55.302Z,0
2017-04-13T03:14:55.393Z,0
2017-04-13T03:15:55.402Z,0
2017-04-13T03:16:55.391Z,0
2017-04-13T03:17:55.422Z,0
2017-04-13T03:18:55.135Z,0
2017-04-13T03:19:55.790Z,0
2017-04-13T03:20:55.185Z,0
2017-04-13T03:21:55.531Z,0
2017-04-13T03:22:55.872Z,0
2017-04-13T03:23:55.901Z,0
2017-04-13T03:24:55.601Z,0
2017-04-13T03:25:55.951Z,0
2017-04-13T03:26:55.982Z,0
2017-04-13T03:27:55.692Z,0
2017-04-13T03:28:56.033Z,0
2017-04-13T03:29:56.058Z,0
2017-04-13T03:30:56.086Z,0
2017-04-13T03:31:55.810Z,0
2017-04-13T03:32:56.143Z,0
2017-04-13T03:33:55.540Z,0
2017-04-13T03:34:56.197Z,0
2017-04-13T03:35:55.902Z,0
2017-04-13T03:36:55.938Z,0
2017-04-13T03:37:56.284Z,0
2017-04-13T03:38:56.243Z,0
2017-04-13T03:39:56.023Z,0
2017-04-13T03:40:56.362Z,0
2017-04-13T03:41:56.385Z,0
2017-04-13T03:42:56.406Z,0
2017-04-13T03:43:55.763Z,0
2017-04-13T03:44:56.467Z,0
2017-04-13T03:45:56.493Z,0
2017-04-13T03:46:56.521Z,0
2017-04-13T03:47:56.545Z,0
2017-04-13T03:48:56.822Z,0
2017-04-13T03:49:56.284Z,0
2017-04-13T03:50:56.329Z,0
2017-04-13T03:51:56.333Z,0
2017-04-13T03:52:56.682Z,0
2017-04-13T03:53:56.964Z,0
2017-04-13T03:54:56.420Z,0
2017-04-13T03:55:56.448Z,0
2017-04-13T03:56:56.792Z,0
2017-04-13T03:57:56.825Z,0
2017-04-13T03:58:56.783Z,0
2017-04-13T03:59:56.244Z,0
2017-04-13T04:00:56.896Z,0
2017-04-13T04:01:56.612Z,0
2017-04-13T04:02:56.637Z,0
2017-04-13T04:03:58.164Z,0
2017-04-13T04:04:56.695Z,0
2017-04-13T04:05:57.032Z,0
2017-04-13T04:06:57.061Z,0
2017-04-13T04:07:56.777Z,0
2017-04-13T04:08:57.369Z,0
2017-04-13T04:09:56.822Z,0
2017-04-13T04:10:56.543Z,0
2017-04-13T04:11:57.196Z,0
2017-04-13T04:12:56.908Z,0
2017-04-13T04:13:57.494Z,0
2017-04-13T04:14:56.650Z,0
2017-04-13T04:15:57.359Z,0
2017-04-13T04:16:57.333Z,0
2017-04-13T04:17:57.053Z,0
2017-04-13T04:18:57.633Z,0
2017-04-13T04:19:57.094Z,0
2017-04-13T04:20:57.448Z,0
2017-04-13T04:21:57.476Z,0
2017-04-13T04:22:57.189Z,0
2017-04-13T04:23:57.770Z,0
2017-04-13T04:24:57.260Z,0
2017-04-13T04:25:56.947Z,0
2017-04-13T04:26:57.603Z,4
2017-04-13T04:27:57.637Z,4
2017-04-13T04:28:57.637Z,4
2017-04-13T04:29:57.358Z,4
2017-04-13T04:30:57.394Z,4
2017-04-13T04:31:57.423Z,8
2017-04-13T04:32:57.764Z,8
2017-04-13T04:33:57.420Z,8
2017-04-13T04:34:57.821Z,12
2017-04-13T04:35:57.834Z,8
2017-04-13T04:36:57.870Z,12
2017-04-13T04:37:57.895Z,12
2017-04-13T04:38:57.868Z,16
2017-04-13T04:39:57.629Z,20
2017-04-13T04:40:57.670Z,20
2017-04-13T04:41:57.694Z,24
2017-04-13T04:42:57.411Z,28
2017-04-13T04:43:57.440Z,32
2017-04-13T04:44:58.086Z,36
2017-04-13T04:45:58.109Z,40
2017-04-13T04:46:58.142Z,44
2017-04-13T04:47:57.228Z,48
2017-04-13T04:48:58.201Z,52
2017-04-13T04:49:57.913Z,56
2017-04-13T04:50:58.249Z,60
2017-04-13T04:51:57.963Z,68
2017-04-13T04:52:57.995Z,80
2017-04-13T04:53:58.027Z,84
2017-04-13T04:54:58.608Z,92
2017-04-13T04:55:58.390Z,100
2017-04-13T04:56:58.093Z,112
2017-04-13T04:57:58.448Z,116
2017-04-13T04:58:57.848Z,124
2017-04-13T04:59:58.485Z,132
2017-04-13T05:00:58.217Z,144
2017-04-13T05:01:58.546Z,144
2017-04-13T05:02:57.951Z,144
2017-04-13T05:03:58.599Z,152
2017-04-13T05:04:58.876Z,164
2017-04-13T05:05:58.650Z,164
2017-04-13T05:06:58.366Z,152
2017-04-13T05:07:58.395Z,144
2017-04-13T05:08:58.740Z,144
2017-04-13T05:09:58.701Z,148
2017-04-13T05:10:58.784Z,156
2017-04-13T05:11:58.821Z,160
2017-04-13T05:12:58.847Z,172
2017-04-13T05:13:58.562Z,192
2017-04-13T05:14:59.151Z,204
2017-04-13T05:15:58.608Z,200
2017-04-13T05:16:58.640Z,212
2017-04-13T05:17:58.653Z,228
2017-04-13T05:18:59.019Z,244
2017-04-13T05:19:59.282Z,260
2017-04-13T05:20:59.073Z,276
2017-04-13T05:21:59.089Z,292
2017-04-13T05:22:58.850Z,296
2017-04-13T05:23:59.137Z,300
2017-04-13T05:24:59.107Z,312
2017-04-13T05:25:59.191Z,328
2017-04-13T05:26:58.909Z,340
2017-04-13T05:27:59.249Z,356
2017-04-13T05:28:58.344Z,372
2017-04-13T05:29:59.231Z,376
2017-04-13T05:30:59.332Z,384
2017-04-13T05:31:59.040Z,392
2017-04-13T05:32:59.380Z,392
2017-04-13T05:33:59.099Z,392
2017-04-13T05:34:59.057Z,408
2017-04-13T05:35:59.152Z,416
2017-04-13T05:36:59.173Z,448
2017-04-13T05:37:58.888Z,456
2017-04-13T05:38:59.277Z,468
2017-04-13T05:39:59.510Z,476
2017-04-13T05:40:59.283Z,484
2017-04-13T05:41:59.307Z,520
2017-04-13T05:42:59.648Z,536
2017-04-13T05:43:59.681Z,520
2017-04-13T05:44:59.964Z,516
2017-04-13T05:45:59.746Z,524
2017-04-13T05:46:59.142Z,532
2017-04-13T05:47:59.780Z,520
2017-04-13T05:48:59.821Z,528
2017-04-13T05:49:59.777Z,536
2017-04-13T05:50:59.560Z,540
2017-04-13T05:51:59.575Z,540
2017-04-13T05:52:59.601Z,544
2017-04-13T05:53:59.632Z,576
2017-04-13T05:54:59.914Z,648
2017-04-13T05:55:59.682Z,692
2017-04-13T05:57:00.023Z,704
2017-04-13T05:58:00.059Z,712
2017-04-13T05:58:59.773Z,708
2017-04-13T06:00:00.365Z,720
2017-04-13T06:00:59.826Z,736
2017-04-13T06:02:00.163Z,688
2017-04-13T06:03:00.191Z,660
2017-04-13T06:04:00.212Z,708
2017-04-13T06:05:00.501Z,732
2017-04-13T06:06:00.265Z,704
2017-04-13T06:06:59.982Z,728
2017-04-13T06:08:00.336Z,756
2017-04-13T06:08:59.723Z,740
2017-04-13T06:10:00.636Z,760
2017-04-13T06:11:00.409Z,752
2017-04-13T06:12:00.433Z,820
2017-04-13T06:13:00.156Z,828
2017-04-13T06:14:00.172Z,808
2017-04-13T06:15:00.775Z,752
2017-04-13T06:16:00.545Z,720
2017-04-13T06:17:00.566Z,748
2017-04-13T06:18:00.599Z,808
2017-04-13T06:19:00.615Z,816
2017-04-13T06:20:00.592Z,828
2017-04-13T06:21:00.364Z,876
2017-04-13T06:22:00.698Z,936
2017-04-13T06:23:00.725Z,888
2017-04-13T06:24:00.131Z,776
2017-04-13T06:25:01.042Z,928
2017-04-13T06:26:00.813Z,1088
2017-04-13T06:27:00.841Z,872
2017-04-13T06:28:00.858Z,836
2017-04-13T06:29:00.890Z,820
2017-04-13T06:30:01.165Z,816
2017-04-13T06:31:00.991Z,840
2017-04-13T06:32:00.976Z,920
2017-04-13T06:33:00.988Z,900
2017-04-13T06:34:01.030Z,928
2017-04-13T06:35:01.362Z,1032
2017-04-13T06:36:00.780Z,984
2017-04-13T06:37:01.109Z,1012
2017-04-13T06:38:00.825Z,1148
2017-04-13T06:39:01.167Z,1124
2017-04-13T06:40:01.442Z,1048
2017-04-13T06:41:01.216Z,964
2017-04-13T06:42:01.248Z,912
2017-04-13T06:43:00.957Z,932
2017-04-13T06:44:01.296Z,948
2017-04-13T06:45:01.578Z,844
2017-04-13T06:46:01.117Z,800
2017-04-13T06:47:00.751Z,812
2017-04-13T06:48:00.780Z,848
2017-04-13T06:49:01.442Z,972
2017-04-13T06:50:00.835Z,1056
2017-04-13T06:51:01.179Z,1084
2017-04-13T06:52:01.203Z,1048
2017-04-13T06:53:01.540Z,1072
2017-04-13T06:54:00.945Z,924
2017-04-13T06:55:01.281Z,992
2017-04-13T06:56:01.626Z,1028
2017-04-13T06:57:01.342Z,880
2017-04-13T06:58:01.668Z,840
2017-04-13T06:59:01.704Z,964
2017-04-13T07:00:01.725Z,1188
2017-04-13T07:01:01.767Z,1332
2017-04-13T07:02:01.179Z,1312
2017-04-13T07:03:01.804Z,1268
2017-04-13T07:04:01.212Z,1208
2017-04-13T07:05:01.556Z,1044
2017-04-13T07:06:01.582Z,1040
2017-04-13T07:07:01.919Z,1056
2017-04-13T07:08:01.949Z,1152
2017-04-13T07:09:01.351Z,1220
2017-04-13T07:10:02.004Z,1316
2017-04-13T07:11:01.713Z,1352
2017-04-13T07:12:02.050Z,1340
2017-04-13T07:13:01.455Z,1432
2017-04-13T07:14:02.108Z,1492
2017-04-13T07:15:02.144Z,1300
2017-04-13T07:16:01.846Z,1200
2017-04-13T07:17:01.875Z,1252
2017-04-13T07:18:02.219Z,1304
2017-04-13T07:19:01.938Z,1272
2017-04-13T07:20:02.265Z,1376
2017-04-13T07:21:02.287Z,1476
2017-04-13T07:22:02.002Z,1496
2017-04-13T07:23:02.031Z,1428
2017-04-13T07:24:02.375Z,1284
2017-04-13T07:25:02.407Z,1348
2017-04-13T07:26:02.424Z,1656
2017-04-13T07:27:02.142Z,1728
2017-04-13T07:28:02.180Z,1960
2017-04-13T07:29:02.202Z,2132
2017-04-13T07:30:02.541Z,2048
2017-04-13T07:31:02.555Z,1992
2017-04-13T07:32:02.280Z,1504
2017-04-13T07:33:02.306Z,1300
2017-04-13T07:34:02.334Z,1088
2017-04-13T07:35:02.030Z,920
2017-04-13T07:36:02.325Z,804
2017-04-13T07:37:02.725Z,728
2017-04-13T07:38:02.752Z,684
2017-04-13T07:39:02.773Z,624
2017-04-13T07:40:02.807Z,696
2017-04-13T07:41:03.125Z,928
2017-04-13T07:42:02.856Z,932
2017-04-13T07:43:02.888Z,772
2017-04-13T07:44:02.599Z,848
2017-04-13T07:45:02.946Z,1204
2017-04-13T07:46:02.904Z,1612
2017-04-13T07:47:02.988Z,1844
2017-04-13T07:48:03.026Z,1808
2017-04-13T07:49:02.429Z,1504
2017-04-13T07:50:02.761Z,1424
2017-04-13T07:51:02.723Z,1556
2017-04-13T07:52:03.123Z,1548
2017-04-13T07:53:02.831Z,1408
2017-04-13T07:54:03.178Z,1344
2017-04-13T07:55:03.210Z,1328
2017-04-13T07:56:03.165Z,1260
2017-04-13T07:57:03.260Z,1192
2017-04-13T07:58:03.285Z,1280
2017-04-13T07:59:03.027Z,1712
2017-04-13T08:00:03.341Z,2224
2017-04-13T08:01:03.307Z,2468
2017-04-13T08:02:03.391Z,2576
2017-04-13T08:03:03.425Z,2392
2017-04-13T08:04:03.444Z,2164
2017-04-13T08:05:03.473Z,2452
2017-04-13T08:06:03.758Z,2800
2017-04-13T08:07:03.534Z,3040
2017-04-13T08:08:03.243Z,3152
2017-04-13T08:09:02.968Z,3020
2017-04-13T08:10:03.613Z,2804
2017-04-13T08:11:03.573Z,2852
2017-04-13T08:12:03.357Z,3316
2017-04-13T08:13:03.684Z,3216
2017-04-13T08:14:03.716Z,2968
2017-04-13T08:15:03.741Z,3696
2017-04-13T08:16:04.022Z,4296
2017-04-13T08:17:02.862Z,4412
2017-04-13T08:18:03.504Z,3920
2017-04-13T08:19:03.534Z,4048
2017-04-13T08:20:03.568Z,4112
2017-04-13T08:21:04.156Z,4500
2017-04-13T08:22:03.925Z,4332
2017-04-13T08:23:03.642Z,4320
2017-04-13T08:24:03.675Z,3948
2017-04-13T08:25:04.021Z,4556
2017-04-13T08:26:03.669Z,4252
2017-04-13T08:27:04.069Z,3528
2017-04-13T08:28:04.094Z,2628
2017-04-13T08:29:03.806Z,2516
2017-04-13T08:30:04.152Z,2588
2017-04-13T08:31:04.435Z,2512
2017-04-13T08:32:03.894Z,2472
2017-04-13T08:33:04.230Z,2088
2017-04-13T08:34:03.951Z,2032
2017-04-13T08:35:03.971Z,2216
2017-04-13T08:36:03.932Z,1960
2017-04-13T08:37:03.713Z,2044
2017-04-13T08:38:04.367Z,1912
2017-04-13T08:39:04.386Z,1880
2017-04-13T08:40:04.423Z,2288
2017-04-13T08:41:04.700Z,2604
2017-04-13T08:42:04.473Z,2592
2017-04-13T08:43:04.501Z,2436
2017-04-13T08:44:04.542Z,1744
2017-04-13T08:45:04.551Z,1388
2017-04-13T08:46:04.524Z,1240
2017-04-13T08:47:04.297Z,1188
2017-04-13T08:48:04.328Z,1300
2017-04-13T08:49:04.663Z,1284
2017-04-13T08:50:04.687Z,1352
2017-04-13T08:51:04.662Z,1320
2017-04-13T08:52:03.807Z,1296
2017-04-13T08:53:04.141Z,1336
2017-04-13T08:54:04.481Z,1124
2017-04-13T08:55:04.511Z,1040
2017-04-13T08:56:05.102Z,1092
2017-04-13T08:57:04.567Z,1072
2017-04-13T08:58:04.281Z,1140
2017-04-13T08:59:04.622Z,1328
2017-04-13T09:00:04.658Z,1812
2017-04-13T09:01:05.240Z,2084
2017-04-13T09:02:04.739Z,2328
2017-04-13T09:03:04.412Z,2016
2017-04-13T09:04:04.441Z,1584
2017-04-13T09:05:04.478Z,1284
2017-04-13T09:06:05.395Z,1244
2017-04-13T09:07:05.147Z,1368
2017-04-13T09:08:04.902Z,1748
2017-04-13T09:09:04.941Z,2100
2017-04-13T09:10:04.925Z,2008
2017-04-13T09:11:04.881Z,2052
2017-04-13T09:12:04.967Z,1996
2017-04-13T09:13:05.316Z,1952
2017-04-13T09:14:04.740Z,1852
2017-04-13T09:15:04.734Z,1884
2017-04-13T09:16:05.645Z,1984
2017-04-13T09:17:05.107Z,1848
2017-04-13T09:18:05.136Z,1704
2017-04-13T09:19:05.472Z,1776
2017-04-13T09:20:05.493Z,2000
2017-04-13T09:21:05.774Z,1548
2017-04-13T09:22:05.251Z,1144
2017-04-13T09:23:05.579Z,1068
2017-04-13T09:24:05.648Z,1176
2017-04-13T09:25:05.625Z,1512
2017-04-13T09:26:05.602Z,1772
2017-04-13T09:27:05.074Z,2404
2017-04-13T09:28:05.403Z,2892
2017-04-13T09:29:05.740Z,2520
2017-04-13T09:30:05.767Z,3036
2017-04-13T09:31:05.735Z,3540
2017-04-13T09:32:05.826Z,4092
2017-04-13T09:33:05.857Z,4244
2017-04-13T09:34:05.874Z,4048
2017-04-13T09:35:05.899Z,3696
2017-04-13T09:36:05.895Z,3824
2017-04-13T09:37:05.963Z,3872
2017-04-13T09:38:05.695Z,3796
2017-04-13T09:39:05.383Z,3140
2017-04-13T09:40:06.040Z,2952
2017-04-13T09:41:06.323Z,3492
2017-04-13T09:42:05.782Z,3832
2017-04-13T09:43:06.118Z,3520
2017-04-13T09:44:06.150Z,2596
2017-04-13T09:45:05.861Z,1976
2017-04-13T09:46:05.829Z,1560
2017-04-13T09:47:06.225Z,1612
2017-04-13T09:48:05.942Z,1444
2017-04-13T09:49:05.975Z,1360
2017-04-13T09:50:05.995Z,1872
2017-04-13T09:51:06.591Z,1732
2017-04-13T09:52:06.055Z,1300
2017-04-13T09:53:06.073Z,1464
2017-04-13T09:54:06.415Z,1392
2017-04-13T09:55:06.444Z,1256
2017-04-13T09:56:06.728Z,1588
2017-04-13T09:57:06.504Z,1776
2017-04-13T09:58:06.237Z,1628
2017-04-13T09:59:06.244Z,1644
2017-04-13T10:00:06.584Z,1484
2017-04-13T10:01:06.860Z,1480
2017-04-13T10:02:06.322Z,1440
2017-04-13T10:03:06.038Z,1132
2017-04-13T10:04:06.072Z,1312
2017-04-13T10:05:06.406Z,1352
2017-04-13T10:06:06.725Z,1332
2017-04-13T10:07:06.459Z,1436
2017-04-13T10:08:06.802Z,1560
2017-04-13T10:09:06.821Z,1488
2017-04-13T10:10:06.855Z,1424
2017-04-13T10:11:06.815Z,1476
2017-04-13T10:12:06.904Z,1700
2017-04-13T10:13:06.937Z,1768
2017-04-13T10:14:06.649Z,1464
2017-04-13T10:15:06.986Z,1748
2017-04-13T10:16:07.259Z,2124
2017-04-13T10:17:06.420Z,2488
2017-04-13T10:18:06.753Z,3544
2017-04-13T10:19:07.085Z,3368
2017-04-13T10:20:06.806Z,3268
2017-04-13T10:21:07.082Z,4480
2017-04-13T10:22:06.556Z,4464
2017-04-13T10:23:06.892Z,3288
2017-04-13T10:24:06.921Z,3208
2017-04-13T10:25:06.942Z,3528
2017-04-13T10:26:07.535Z,4020
2017-04-13T10:27:06.683Z,5316
2017-04-13T10:28:07.344Z,5560
2017-04-13T10:29:06.766Z,5904
2017-04-13T10:30:07.397Z,4896
2017-04-13T10:31:07.670Z,4640
2017-04-13T10:32:06.824Z,3868
2017-04-13T10:33:07.483Z,3828
2017-04-13T10:34:07.500Z,3580
2017-04-13T10:35:07.525Z,4872
2017-04-13T10:36:07.810Z,5704
2017-04-13T10:37:07.580Z,6436
2017-04-13T10:38:07.655Z,6000
2017-04-13T10:39:07.316Z,3104
2017-04-13T10:40:07.353Z,3344
2017-04-13T10:41:07.318Z,3816
2017-04-13T10:42:07.399Z,3448
2017-04-13T10:43:07.431Z,3340
2017-04-13T10:44:07.468Z,3348
2017-04-13T10:45:07.491Z,3340
2017-04-13T10:46:08.072Z,3516
2017-04-13T10:47:07.850Z,4616
2017-04-13T10:48:07.571Z,3816
2017-04-13T10:49:07.913Z,3524
2017-04-13T10:50:07.624Z,4168
2017-04-13T10:51:07.957Z,6452
2017-04-13T10:52:07.986Z,6380
2017-04-13T10:53:07.439Z,3236
2017-04-13T10:54:07.428Z,2392
2017-04-13T10:55:08.089Z,2496
2017-04-13T10:56:07.797Z,3884
2017-04-13T10:57:07.815Z,6132
2017-04-13T10:58:07.531Z,6028
2017-04-13T10:59:08.184Z,4548
2017-04-13T11:00:08.214Z,2984
2017-04-13T11:01:08.292Z,2672
2017-04-13T11:02:07.954Z,2988
2017-04-13T11:03:08.279Z,2932
2017-04-13T11:04:08.320Z,2948
2017-04-13T11:05:08.046Z,3344
2017-04-13T11:06:08.375Z,3776
2017-04-13T11:07:08.102Z,4392
2017-04-13T11:08:08.113Z,2516
2017-04-13T11:09:08.495Z,2068
2017-04-13T11:10:08.487Z,2840
2017-04-13T11:11:08.513Z,2436
2017-04-13T11:12:08.477Z,1796
2017-04-13T11:13:08.576Z,1572
2017-04-13T11:14:08.286Z,1760
2017-04-13T11:15:08.642Z,2088
2017-04-13T11:16:08.643Z,2148
2017-04-13T11:17:08.305Z,1636
2017-04-13T11:18:08.698Z,1120
2017-04-13T11:19:07.786Z,1204
2017-04-13T11:20:08.764Z,1888
2017-04-13T11:21:08.800Z,3488
2017-04-13T11:22:08.752Z,4672
2017-04-13T11:23:08.841Z,5096
2017-04-13T11:24:08.874Z,4580
2017-04-13T11:25:08.899Z,2728
2017-04-13T11:26:08.616Z,2152
2017-04-13T11:27:08.900Z,3080
2017-04-13T11:28:08.984Z,5300
2017-04-13T11:29:08.384Z,7748
2017-04-13T11:30:09.039Z,8500
2017-04-13T11:31:08.121Z,4068
2017-04-13T11:32:09.345Z,3548
2017-04-13T11:33:08.809Z,3208
2017-04-13T11:34:09.140Z,3028
2017-04-13T11:35:09.174Z,3264
2017-04-13T11:36:09.199Z,3748
2017-04-13T11:37:09.156Z,3532
2017-04-13T11:38:08.941Z,3352
2017-04-13T11:39:08.973Z,3288
2017-04-13T11:40:08.689Z,3740
2017-04-13T11:41:09.021Z,4088
2017-04-13T11:42:09.611Z,4520
2017-04-13T11:43:09.392Z,4596
2017-04-13T11:44:09.417Z,4944
2017-04-13T11:45:09.142Z,5504
2017-04-13T11:46:09.162Z,7640
2017-04-13T11:47:09.435Z,7860
2017-04-13T11:48:08.904Z,7852
2017-04-13T11:49:09.557Z,7992
2017-04-13T11:50:09.289Z,6040
2017-04-13T11:51:09.621Z,6024
2017-04-13T11:52:09.267Z,8340
2017-04-13T11:53:09.352Z,7944
2017-04-13T11:54:09.076Z,8028
2017-04-13T11:55:09.420Z,8948
2017-04-13T11:56:09.754Z,9768
2017-04-13T11:57:09.719Z,10628
2017-04-13T11:58:09.499Z,10904
2017-04-13T11:59:09.529Z,9164
2017-04-13T12:00:09.896Z,8260
2017-04-13T12:01:09.893Z,3824
2017-04-13T12:02:09.854Z,3596
2017-04-13T12:03:09.950Z,4916
2017-04-13T12:04:09.668Z,7240
2017-04-13T12:05:10.012Z,11620
2017-04-13T12:06:10.030Z,4536
2017-04-13T12:07:10.323Z,3840
2017-04-13T12:08:09.776Z,4564
2017-04-13T12:09:09.811Z,5968
2017-04-13T12:10:10.160Z,4372
2017-04-13T12:11:09.869Z,3492
2017-04-13T12:12:09.842Z,3980
2017-04-13T12:13:10.243Z,4664
2017-04-13T12:14:09.960Z,6588
2017-04-13T12:15:10.301Z,12572
2017-04-13T12:16:09.705Z,3552
2017-04-13T12:17:10.346Z,3288
2017-04-13T12:18:10.400Z,3108
2017-04-13T12:19:09.783Z,3116
2017-04-13T12:20:10.120Z,3748
2017-04-13T12:21:10.474Z,4964
2017-04-13T12:22:10.457Z,5080
2017-04-13T12:23:10.537Z,44384
2017-04-13T12:24:09.963Z,5332
2017-04-13T12:25:10.272Z,61888
2017-04-13T12:26:10.306Z,7284
2017-04-13T12:27:10.893Z,6532
2017-04-13T12:28:10.672Z,53408
2017-04-13T12:29:10.690Z,62816
2017-04-13T12:30:10.107Z,26528
2017-04-13T12:31:10.124Z,25472
2017-04-13T12:32:11.084Z,21376
2017-04-13T12:33:10.816Z,18368
2017-04-13T12:34:10.521Z,2116
2017-04-13T12:35:10.866Z,1972
2017-04-13T12:36:10.902Z,1940
2017-04-13T12:37:10.865Z,1788
2017-04-13T12:38:10.964Z,1760
2017-04-13T12:39:10.981Z,1888
2017-04-13T12:40:10.390Z,2268
2017-04-13T12:41:11.043Z,3532
2017-04-13T12:42:11.006Z,5760
2017-04-13T12:43:11.099Z,5436
2017-04-13T12:44:11.133Z,14156
2017-04-13T12:45:10.850Z,15628
2017-04-13T12:46:11.192Z,37632
2017-04-13T12:47:11.161Z,39200
2017-04-13T12:48:10.941Z,39424
2017-04-13T12:49:10.960Z,37344
2017-04-13T12:50:11.037Z,36128
2017-04-13T12:51:11.031Z,5868
2017-04-13T12:52:10.687Z,3128
2017-04-13T12:53:11.080Z,2520
2017-04-13T12:54:11.117Z,2668
2017-04-13T12:55:11.146Z,2912
2017-04-13T12:56:11.490Z,3288
2017-04-13T12:57:11.762Z,4376
2017-04-13T12:58:11.556Z,7496
2017-04-13T12:59:11.574Z,13800
2017-04-13T13:00:10.665Z,12804
2017-04-13T13:01:11.322Z,5744
2017-04-13T13:02:11.602Z,4536
2017-04-13T13:03:11.072Z,6280
2017-04-13T13:04:11.732Z,10008
2017-04-13T13:05:11.442Z,6072
2017-04-13T13:06:11.778Z,4840
2017-04-13T13:07:12.062Z,4532
2017-04-13T13:08:11.871Z,3384
2017-04-13T13:09:11.236Z,3060
2017-04-13T13:10:11.589Z,3472
2017-04-13T13:11:11.610Z,3672
2017-04-13T13:12:11.954Z,3764
2017-04-13T13:13:11.979Z,3176
2017-04-13T13:14:12.019Z,3548
2017-04-13T13:15:12.036Z,4644
2017-04-13T13:16:11.762Z,7340
2017-04-13T13:17:12.091Z,5880
2017-04-13T13:18:12.130Z,3668
2017-04-13T13:19:11.539Z,2840
2017-04-13T13:20:11.880Z,2704
2017-04-13T13:21:11.593Z,3184
2017-04-13T13:22:12.242Z,4648
2017-04-13T13:23:12.316Z,4680
2017-04-13T13:24:12.302Z,3996
2017-04-13T13:25:11.709Z,4336
2017-04-13T13:26:12.373Z,3236
2017-04-13T13:27:12.389Z,2600
2017-04-13T13:28:12.110Z,2212
2017-04-13T13:29:12.450Z,1980
2017-04-13T13:30:12.176Z,1992
2017-04-13T13:31:11.880Z,2296
2017-04-13T13:32:12.525Z,3020
2017-04-13T13:33:12.498Z,4640
2017-04-13T13:34:12.278Z,6972
2017-04-13T13:35:12.307Z,26720
2017-04-13T13:36:11.697Z,57920
2017-04-13T13:37:12.676Z,46432
2017-04-13T13:38:12.944Z,14520
2017-04-13T13:39:12.739Z,21728
2017-04-13T13:40:12.758Z,44896
2017-04-13T13:41:12.476Z,41856
2017-04-13T13:42:12.820Z,38144
2017-04-13T13:43:12.835Z,45152
2017-04-13T13:44:12.874Z,45504
2017-04-13T13:45:12.909Z,61376
2017-04-13T13:46:12.931Z,17672
2017-04-13T13:47:12.648Z,24448
2017-04-13T13:48:13.235Z,11292
2017-04-13T13:49:13.025Z,43232
2017-04-13T13:50:12.418Z,61856
2017-04-13T13:51:13.088Z,56928